Maidenhead, United Kingdom
Current Conditions -  °F | °C
As of 9:20 PM on Sunday 23 Nov 2014 (Local Time) from EGLL Reporting Station
Clear Clear  
Wind Chill: 39°   Ceiling: Unl
Heat Index: 43°   Visibility: 6mi
Dew Point: 41°   Wind: 6mph
Humidity: 93%   Direction: 310°NW
Pressure: 30.15"   Gusts: NA
Location:  51.52°N, 0.72°W
Report Text: EGLL 232120Z AUTO 31005KT 9999 NCD 06/05 Q1021
Loading
Personal Weather Stations






























Interactive Weather Map New forecast layout! Learn more

10-Day Weather Forecast

Advertisements
Track Severe Weather on mobile